Astra — PB4187 — position and weather

sailwx.info

Track history (hours):
 
Tides and Currents Weather Stations Pressure Air Temp Water Temp Dewpoint Dewpoint Depression Visibility Wind Speed Wind Dir Waves Ship Positions

Astra

Last reported at 2015-Jan-27 02:33 UTC. Time now 2015-Jan-27 03:28 UTC.
Position N 48°56' E 008°11'.

Length 110 m; draft 2.9 m.

Type: Other ship. MMSI: 244650752.

Date/timePositionNaut miles runAvg speedWind from/ knotsBaromVisibWave heightAir tempDewpointWater temp
2015-Jan-27 02:33N 48°56' E 008°11'3 3.0
2015-Jan-27 01:33N 48°58' E 008°14'3 3.2
2015-Jan-27 00:33N 49°00' E 008°17'4 3.6
2015-Jan-26 23:33N 49°04' E 008°19'4 3.6
2015-Jan-26 22:33N 49°07' E 008°22'4 3.6
2015-Jan-26 21:33N 49°10' E 008°22'4 3.8
2015-Jan-26 20:33N 49°14' E 008°23'4 4.1
2015-Jan-26 19:32N 49°17' E 008°28'3 2.6
2015-Jan-26 18:33N 49°19' E 008°27'105 3.4
2015-Jan-25 11:17N 50°49' E 007°02'2 3.0
2015-Jan-25 10:28N 50°51' E 006°59'0 0.0
2015-Jan-24 18:24N 50°51' E 006°59'128 5.6
2015-Jan-23 19:24N 48°50' E 008°07'  
2015-Jan-21 09:28N 48°46' E 007°60'6 6.8
2015-Jan-21 08:32N 48°50' E 008°07'3 3.2
2015-Jan-21 07:33N 48°53' E 008°08'4 3.7
2015-Jan-21 06:33N 48°56' E 008°11'4 3.6
2015-Jan-21 05:33N 48°58' E 008°15'4 3.8
2015-Jan-21 04:34N 49°02' E 008°18'4 4.2
2015-Jan-21 03:33N 49°05' E 008°21'4 4.2
2015-Jan-21 02:34N 49°10' E 008°22'4 4.2
2015-Jan-21 01:33N 49°14' E 008°23'5 4.6
2015-Jan-21 00:34N 49°17' E 008°28'3 3.1
2015-Jan-20 23:29N 49°20' E 008°28'4 4.7
2015-Jan-20 22:33N 49°25' E 008°30'106 3.5
2015-Jan-19 16:23N 50°54' E 006°60'13 4.2
2015-Jan-19 13:23N 51°05' E 006°52'3 3.9
2015-Jan-19 12:33N 51°09' E 006°51'2 2.3
2015-Jan-19 11:33N 51°10' E 006°48'4 3.8
2015-Jan-19 10:33N 51°12' E 006°44'3 2.6
2015-Jan-19 09:33N 51°15' E 006°45'50 3.6
2015-Jan-18 19:31N 51°52' E 005°50'6 6.4
2015-Jan-18 18:30N 51°54' E 005°40'6 6.4
2015-Jan-18 17:33N 51°53' E 005°30'6 5.8
2015-Jan-18 16:33N 51°49' E 005°23'5 5.1
2015-Jan-18 15:34N 51°49' E 005°15'6 6.0
2015-Jan-18 14:34N 51°50' E 005°05'7 6.7
2015-Jan-18 13:33N 51°49' E 004°54'8 8.2
2015-Jan-18 12:34N 51°49' E 004°41'7 7.1
2015-Jan-18 11:33N 51°43' E 004°36'7 7.3
2015-Jan-18 10:33N 51°41' E 004°25'6 6.2
2015-Jan-18 09:33N 51°39' E 004°16'4 3.7
2015-Jan-18 08:24N 51°40' E 004°09'4 5.3
2015-Jan-18 07:33N 51°37' E 004°03'6 5.6
2015-Jan-18 06:33N 51°32' E 004°01'4 4.4
2015-Jan-18 05:33N 51°27' E 004°01'3 3.3
2015-Jan-18 04:33N 51°24' E 003°58'6 6.3
2015-Jan-18 03:33N 51°21' E 003°50'6 6.1
2015-Jan-18 02:33N 51°25' E 003°42'2 2.2
2015-Jan-18 01:33N 51°27' E 003°43'0 0.3
2015-Jan-18 00:33N 51°27' E 003°43'0 0.0
2015-Jan-17 23:33N 51°27' E 003°43'0 0.0
2015-Jan-17 22:33N 51°27' E 003°43'0 0.0
2015-Jan-17 21:33N 51°27' E 003°43'0 0.0
2015-Jan-17 20:33N 51°27' E 003°43'0 0.0
2015-Jan-17 19:33N 51°27' E 003°43'0 0.0
2015-Jan-17 18:33N 51°27' E 003°43'0 0.0
2015-Jan-17 17:33N 51°27' E 003°43'0 0.4
2015-Jan-17 16:33N 51°27' E 003°43'0 0.1
2015-Jan-17 15:33N 51°27' E 003°43'0 0.0
2015-Jan-17 14:33N 51°27' E 003°43'0 0.0
2015-Jan-17 13:33N 51°27' E 003°43'0 0.0
2015-Jan-17 12:33N 51°27' E 003°43'0 0.0
2015-Jan-17 11:33N 51°27' E 003°43'0 0.0
2015-Jan-17 10:33N 51°27' E 003°43'0 0.0
2015-Jan-17 09:33N 51°27' E 003°43'0 0.0
2015-Jan-17 08:33N 51°27' E 003°43'0 0.0
2015-Jan-17 07:33N 51°27' E 003°43'0 0.0
2015-Jan-17 06:33N 51°27' E 003°43'0 0.0
2015-Jan-17 05:33N 51°27' E 003°43'0 0.0
2015-Jan-17 04:33N 51°27' E 003°43'0 0.0
2015-Jan-17 03:33N 51°27' E 003°43'0 0.0
2015-Jan-17 02:33N 51°27' E 003°43'  
Track history (hours):
 
Tides and Currents Weather Stations Pressure Air Temp Water Temp Dewpoint Dewpoint Depression Visibility Wind Speed Wind Dir Waves Ship Positions

Astra

Last reported at 2015-Jan-27 02:33 UTC. Time now 2015-Jan-27 03:28 UTC.
Position N 48°56' E 008°11'.

Length 110 m; draft 2.9 m.

Type: Other ship. MMSI: 244650752.

Date/timePositionNaut miles runAvg speedWind from/ knotsBaromVisibWave heightAir tempDewpointWater temp
2015-Jan-27 02:33N 48°56' E 008°11'3 3.0
2015-Jan-27 01:33N 48°58' E 008°14'3 3.2
2015-Jan-27 00:33N 49°00' E 008°17'4 3.6
2015-Jan-26 23:33N 49°04' E 008°19'4 3.6
2015-Jan-26 22:33N 49°07' E 008°22'4 3.6
2015-Jan-26 21:33N 49°10' E 008°22'4 3.8
2015-Jan-26 20:33N 49°14' E 008°23'4 4.1
2015-Jan-26 19:32N 49°17' E 008°28'3 2.6
2015-Jan-26 18:33N 49°19' E 008°27'105 3.4
2015-Jan-25 11:17N 50°49' E 007°02'2 3.0
2015-Jan-25 10:28N 50°51' E 006°59'0 0.0
2015-Jan-24 18:24N 50°51' E 006°59'128 5.6
2015-Jan-23 19:24N 48°50' E 008°07'  
2015-Jan-21 09:28N 48°46' E 007°60'6 6.8
2015-Jan-21 08:32N 48°50' E 008°07'3 3.2
2015-Jan-21 07:33N 48°53' E 008°08'4 3.7
2015-Jan-21 06:33N 48°56' E 008°11'4 3.6
2015-Jan-21 05:33N 48°58' E 008°15'4 3.8
2015-Jan-21 04:34N 49°02' E 008°18'4 4.2
2015-Jan-21 03:33N 49°05' E 008°21'4 4.2
2015-Jan-21 02:34N 49°10' E 008°22'4 4.2
2015-Jan-21 01:33N 49°14' E 008°23'5 4.6
2015-Jan-21 00:34N 49°17' E 008°28'3 3.1
2015-Jan-20 23:29N 49°20' E 008°28'4 4.7
2015-Jan-20 22:33N 49°25' E 008°30'106 3.5
2015-Jan-19 16:23N 50°54' E 006°60'13 4.2
2015-Jan-19 13:23N 51°05' E 006°52'3 3.9
2015-Jan-19 12:33N 51°09' E 006°51'2 2.3
2015-Jan-19 11:33N 51°10' E 006°48'4 3.8
2015-Jan-19 10:33N 51°12' E 006°44'3 2.6
2015-Jan-19 09:33N 51°15' E 006°45'50 3.6
2015-Jan-18 19:31N 51°52' E 005°50'6 6.4
2015-Jan-18 18:30N 51°54' E 005°40'6 6.4
2015-Jan-18 17:33N 51°53' E 005°30'6 5.8
2015-Jan-18 16:33N 51°49' E 005°23'5 5.1
2015-Jan-18 15:34N 51°49' E 005°15'6 6.0
2015-Jan-18 14:34N 51°50' E 005°05'7 6.7
2015-Jan-18 13:33N 51°49' E 004°54'8 8.2
2015-Jan-18 12:34N 51°49' E 004°41'7 7.1
2015-Jan-18 11:33N 51°43' E 004°36'7 7.3
2015-Jan-18 10:33N 51°41' E 004°25'6 6.2
2015-Jan-18 09:33N 51°39' E 004°16'4 3.7
2015-Jan-18 08:24N 51°40' E 004°09'4 5.3
2015-Jan-18 07:33N 51°37' E 004°03'6 5.6
2015-Jan-18 06:33N 51°32' E 004°01'4 4.4
2015-Jan-18 05:33N 51°27' E 004°01'3 3.3
2015-Jan-18 04:33N 51°24' E 003°58'6 6.3
2015-Jan-18 03:33N 51°21' E 003°50'6 6.1
2015-Jan-18 02:33N 51°25' E 003°42'2 2.2
2015-Jan-18 01:33N 51°27' E 003°43'0 0.3
2015-Jan-18 00:33N 51°27' E 003°43'0 0.0
2015-Jan-17 23:33N 51°27' E 003°43'0 0.0
2015-Jan-17 22:33N 51°27' E 003°43'0 0.0
2015-Jan-17 21:33N 51°27' E 003°43'0 0.0
2015-Jan-17 20:33N 51°27' E 003°43'0 0.0
2015-Jan-17 19:33N 51°27' E 003°43'0 0.0
2015-Jan-17 18:33N 51°27' E 003°43'0 0.0
2015-Jan-17 17:33N 51°27' E 003°43'0 0.4
2015-Jan-17 16:33N 51°27' E 003°43'0 0.1
2015-Jan-17 15:33N 51°27' E 003°43'0 0.0
2015-Jan-17 14:33N 51°27' E 003°43'0 0.0
2015-Jan-17 13:33N 51°27' E 003°43'0 0.0
2015-Jan-17 12:33N 51°27' E 003°43'0 0.0
2015-Jan-17 11:33N 51°27' E 003°43'0 0.0
2015-Jan-17 10:33N 51°27' E 003°43'0 0.0
2015-Jan-17 09:33N 51°27' E 003°43'0 0.0
2015-Jan-17 08:33N 51°27' E 003°43'0 0.0
2015-Jan-17 07:33N 51°27' E 003°43'0 0.0
2015-Jan-17 06:33N 51°27' E 003°43'0 0.0
2015-Jan-17 05:33N 51°27' E 003°43'0 0.0
2015-Jan-17 04:33N 51°27' E 003°43'0 0.0
2015-Jan-17 03:33N 51°27' E 003°43'0 0.0
2015-Jan-17 02:33N 51°27' E 003°43'  

Dump ship's entire track history